sensor_id;sensor_type;location;lat;lon;timestamp;pressure;altitude;pressure_sealevel;temperature;humidity
76321;BME280;65132;52.088;5.402;2022-12-31T00:01:35;100357.38;;;12.38;97.68
76321;BME280;65132;52.088;5.402;2022-12-31T00:04:02;100353.69;;;12.39;97.61
76321;BME280;65132;52.088;5.402;2022-12-31T00:06:31;100347.34;;;12.23;97.80
76321;BME280;65132;52.088;5.402;2022-12-31T00:09:00;100350.59;;;12.26;98.10
76321;BME280;65132;52.088;5.402;2022-12-31T00:11:28;100347.56;;;12.29;98.04
76321;BME280;65132;52.088;5.402;2022-12-31T00:13:55;100346.19;;;12.25;98.36
76321;BME280;65132;52.088;5.402;2022-12-31T00:16:33;100358.03;;;12.24;98.62
76321;BME280;65132;52.088;5.402;2022-12-31T00:19:00;100357.22;;;12.24;98.13
76321;BME280;65132;52.088;5.402;2022-12-31T00:21:29;100362.59;;;12.16;98.83
76321;BME280;65132;52.088;5.402;2022-12-31T00:23:56;100359.75;;;12.17;98.99
76321;BME280;65132;52.088;5.402;2022-12-31T00:26:25;100361.44;;;12.18;98.57
76321;BME280;65132;52.088;5.402;2022-12-31T00:28:54;100365.19;;;12.33;98.31
76321;BME280;65132;52.088;5.402;2022-12-31T00:31:24;100365.34;;;12.40;97.74
76321;BME280;65132;52.088;5.402;2022-12-31T00:33:51;100367.06;;;12.41;97.46
76321;BME280;65132;52.088;5.402;2022-12-31T00:36:20;100370.47;;;12.43;97.24
76321;BME280;65132;52.088;5.402;2022-12-31T00:38:48;100368.75;;;12.42;96.93
76321;BME280;65132;52.088;5.402;2022-12-31T00:41:17;100369.78;;;12.41;96.75
76321;BME280;65132;52.088;5.402;2022-12-31T00:43:44;100365.53;;;12.38;97.09
76321;BME280;65132;52.088;5.402;2022-12-31T00:46:11;100365.69;;;12.37;97.13
76321;BME280;65132;52.088;5.402;2022-12-31T00:48:38;100373.50;;;12.32;97.21
76321;BME280;65132;52.088;5.402;2022-12-31T00:51:06;100379.94;;;12.31;97.69
76321;BME280;65132;52.088;5.402;2022-12-31T00:53:34;100368.06;;;12.32;97.84
76321;BME280;65132;52.088;5.402;2022-12-31T00:56:07;100372.97;;;12.36;96.65
76321;BME280;65132;52.088;5.402;2022-12-31T00:58:33;100368.59;;;12.35;97.23
76321;BME280;65132;52.088;5.402;2022-12-31T01:01:12;100368.56;;;12.27;97.37
76321;BME280;65132;52.088;5.402;2022-12-31T01:03:40;100362.97;;;12.29;97.10
76321;BME280;65132;52.088;5.402;2022-12-31T01:06:06;100365.53;;;12.30;96.84
76321;BME280;65132;52.088;5.402;2022-12-31T01:08:33;100358.56;;;12.28;97.16
76321;BME280;65132;52.088;5.402;2022-12-31T01:11:00;100371.97;;;12.29;97.04
76321;BME280;65132;52.088;5.402;2022-12-31T01:13:27;100364.16;;;12.26;97.03
76321;BME280;65132;52.088;5.402;2022-12-31T01:15:53;100363.47;;;12.24;96.89
76321;BME280;65132;52.088;5.402;2022-12-31T01:18:20;100374.19;;;12.26;96.97
76321;BME280;65132;52.088;5.402;2022-12-31T01:20:46;100370.94;;;12.22;96.95
76321;BME280;65132;52.088;5.402;2022-12-31T01:23:13;100368.88;;;12.16;97.54
76321;BME280;65132;52.088;5.402;2022-12-31T01:25:42;100372.44;;;12.17;97.27
76321;BME280;65132;52.088;5.402;2022-12-31T01:28:09;100362.25;;;12.11;97.31
76321;BME280;65132;52.088;5.402;2022-12-31T01:30:38;100369.91;;;12.07;98.01
76321;BME280;65132;52.088;5.402;2022-12-31T01:33:05;100370.03;;;12.05;97.47
76321;BME280;65132;52.088;5.402;2022-12-31T01:35:34;100374.81;;;12.03;97.65
76321;BME280;65132;52.088;5.402;2022-12-31T01:38:00;100370.53;;;12.01;97.60
76321;BME280;65132;52.088;5.402;2022-12-31T01:40:27;100377.19;;;12.07;97.88
76321;BME280;65132;52.088;5.402;2022-12-31T01:42:57;100380.75;;;12.07;97.63
76321;BME280;65132;52.088;5.402;2022-12-31T01:45:24;100376.13;;;11.99;97.60
76321;BME280;65132;52.088;5.402;2022-12-31T01:47:55;100374.28;;;12.00;97.45
76321;BME280;65132;52.088;5.402;2022-12-31T01:50:28;100371.91;;;12.05;97.66
76321;BME280;65132;52.088;5.402;2022-12-31T01:52:59;100375.78;;;11.94;97.48
76321;BME280;65132;52.088;5.402;2022-12-31T01:55:42;100384.97;;;12.01;97.23
76321;BME280;65132;52.088;5.402;2022-12-31T01:58:15;100390.84;;;11.97;97.59
76321;BME280;65132;52.088;5.402;2022-12-31T02:00:43;100392.41;;;11.99;96.80
76321;BME280;65132;52.088;5.402;2022-12-31T02:03:10;100398.84;;;11.98;96.83
76321;BME280;65132;52.088;5.402;2022-12-31T02:05:52;100404.78;;;12.02;97.09
76321;BME280;65132;52.088;5.402;2022-12-31T02:08:21;100397.66;;;12.01;97.04
76321;BME280;65132;52.088;5.402;2022-12-31T02:10:47;100386.66;;;12.02;96.75
76321;BME280;65132;52.088;5.402;2022-12-31T02:13:14;100372.72;;;11.97;96.03
76321;BME280;65132;52.088;5.402;2022-12-31T02:15:50;100383.56;;;11.89;96.90
76321;BME280;65132;52.088;5.402;2022-12-31T02:18:29;100362.47;;;11.75;97.57
76321;BME280;65132;52.088;5.402;2022-12-31T02:21:18;100362.66;;;11.74;98.23
76321;BME280;65132;52.088;5.402;2022-12-31T02:35:04;100330.00;;;11.58;98.42
76321;BME280;65132;52.088;5.402;2022-12-31T02:37:33;100340.25;;;11.64;97.44
76321;BME280;65132;52.088;5.402;2022-12-31T02:40:03;100333.25;;;11.61;97.65
76321;BME280;65132;52.088;5.402;2022-12-31T02:42:32;100345.97;;;11.61;97.39
76321;BME280;65132;52.088;5.402;2022-12-31T02:44:58;100325.94;;;11.54;97.77
76321;BME280;65132;52.088;5.402;2022-12-31T02:47:36;100336.47;;;11.57;97.47
76321;BME280;65132;52.088;5.402;2022-12-31T02:50:32;100363.38;;;11.50;97.78
76321;BME280;65132;52.088;5.402;2022-12-31T02:53:23;100366.41;;;11.47;97.91
76321;BME280;65132;52.088;5.402;2022-12-31T02:55:57;100371.84;;;11.55;97.82
76321;BME280;65132;52.088;5.402;2022-12-31T02:58:30;100391.88;;;11.62;96.94
76321;BME280;65132;52.088;5.402;2022-12-31T03:00:59;100391.41;;;11.67;97.04
76321;BME280;65132;52.088;5.402;2022-12-31T03:03:27;100392.88;;;11.61;97.54
76321;BME280;65132;52.088;5.402;2022-12-31T03:05:54;100400.84;;;11.63;96.83
76321;BME280;65132;52.088;5.402;2022-12-31T03:08:23;100408.59;;;11.58;96.81
76321;BME280;65132;52.088;5.402;2022-12-31T03:10:50;100404.28;;;11.65;96.93
76321;BME280;65132;52.088;5.402;2022-12-31T03:13:17;100409.31;;;11.60;96.45
76321;BME280;65132;52.088;5.402;2022-12-31T03:15:43;100398.19;;;11.37;97.80
76321;BME280;65132;52.088;5.402;2022-12-31T03:18:13;100398.31;;;11.36;98.29
76321;BME280;65132;52.088;5.402;2022-12-31T03:20:48;100405.47;;;11.37;97.91
76321;BME280;65132;52.088;5.402;2022-12-31T03:23:18;100404.28;;;11.39;98.46
76321;BME280;65132;52.088;5.402;2022-12-31T03:25:45;100407.47;;;11.35;98.15
76321;BME280;65132;52.088;5.402;2022-12-31T03:28:19;100402.53;;;11.30;98.32
76321;BME280;65132;52.088;5.402;2022-12-31T03:30:48;100417.25;;;11.28;98.35
76321;BME280;65132;52.088;5.402;2022-12-31T03:33:15;100406.78;;;11.33;97.77
76321;BME280;65132;52.088;5.402;2022-12-31T03:35:43;100411.34;;;11.32;97.79
76321;BME280;65132;52.088;5.402;2022-12-31T03:38:10;100413.38;;;11.30;97.89
76321;BME280;65132;52.088;5.402;2022-12-31T03:40:43;100398.97;;;11.30;97.80
76321;BME280;65132;52.088;5.402;2022-12-31T03:43:09;100402.41;;;11.40;97.07
76321;BME280;65132;52.088;5.402;2022-12-31T03:45:36;100410.06;;;11.44;96.96
76321;BME280;65132;52.088;5.402;2022-12-31T03:48:04;100401.41;;;11.41;97.07
76321;BME280;65132;52.088;5.402;2022-12-31T03:50:31;100389.63;;;11.24;97.44
76321;BME280;65132;52.088;5.402;2022-12-31T03:52:58;100401.41;;;11.15;98.14
76321;BME280;65132;52.088;5.402;2022-12-31T03:55:24;100387.84;;;11.15;98.32
76321;BME280;65132;52.088;5.402;2022-12-31T03:57:51;100395.03;;;11.24;97.92
76321;BME280;65132;52.088;5.402;2022-12-31T04:00:19;100392.28;;;11.16;98.48
76321;BME280;65132;52.088;5.402;2022-12-31T04:02:47;100398.84;;;11.14;97.64
76321;BME280;65132;52.088;5.402;2022-12-31T04:05:15;100394.94;;;11.08;98.41
76321;BME280;65132;52.088;5.402;2022-12-31T04:07:42;100388.84;;;11.06;98.15
76321;BME280;65132;52.088;5.402;2022-12-31T04:10:10;100373.91;;;11.02;98.33
76321;BME280;65132;52.088;5.402;2022-12-31T04:12:38;100378.84;;;11.07;98.53
76321;BME280;65132;52.088;5.402;2022-12-31T04:15:05;100384.91;;;11.01;98.49
76321;BME280;65132;52.088;5.402;2022-12-31T04:17:32;100371.84;;;10.96;98.56
76321;BME280;65132;52.088;5.402;2022-12-31T04:19:59;100366.97;;;11.00;98.23
76321;BME280;65132;52.088;5.402;2022-12-31T04:22:25;100357.94;;;10.91;98.33
76321;BME280;65132;52.088;5.402;2022-12-31T04:24:52;100358.09;;;10.90;98.49
76321;BME280;65132;52.088;5.402;2022-12-31T04:27:18;100363.03;;;10.94;98.52
76321;BME280;65132;52.088;5.402;2022-12-31T04:29:45;100358.22;;;10.88;98.44
76321;BME280;65132;52.088;5.402;2022-12-31T04:32:11;100355.84;;;10.85;99.01
76321;BME280;65132;52.088;5.402;2022-12-31T04:34:37;100355.31;;;10.81;98.84
76321;BME280;65132;52.088;5.402;2022-12-31T04:37:04;100360.03;;;10.79;99.46
76321;BME280;65132;52.088;5.402;2022-12-31T04:39:31;100359.88;;;10.81;99.44
76321;BME280;65132;52.088;5.402;2022-12-31T04:41:57;100363.59;;;10.80;99.84
76321;BME280;65132;52.088;5.402;2022-12-31T04:44:24;100372.25;;;10.83;99.91
76321;BME280;65132;52.088;5.402;2022-12-31T04:46:50;100360.81;;;10.90;99.98
76321;BME280;65132;52.088;5.402;2022-12-31T04:49:17;100371.91;;;10.86;99.82
76321;BME280;65132;52.088;5.402;2022-12-31T04:51:43;100378.50;;;10.84;99.79
76321;BME280;65132;52.088;5.402;2022-12-31T04:54:09;100367.69;;;10.84;100.00
76321;BME280;65132;52.088;5.402;2022-12-31T04:56:36;100377.19;;;10.88;100.00
76321;BME280;65132;52.088;5.402;2022-12-31T04:59:03;100365.81;;;10.84;100.00
76321;BME280;65132;52.088;5.402;2022-12-31T05:01:30;100377.66;;;10.83;100.00
76321;BME280;65132;52.088;5.402;2022-12-31T05:03:57;100358.34;;;10.78;100.00
76321;BME280;65132;52.088;5.402;2022-12-31T05:06:23;100367.16;;;10.80;100.00
76321;BME280;65132;52.088;5.402;2022-12-31T05:08:50;100366.06;;;10.73;100.00
76321;BME280;65132;52.088;5.402;2022-12-31T05:11:16;100396.94;;;10.80;100.00
76321;BME280;65132;52.088;5.402;2022-12-31T05:13:43;100368.31;;;10.78;100.00
76321;BME280;65132;52.088;5.402;2022-12-31T05:16:09;100351.78;;;10.81;100.00
76321;BME280;65132;52.088;5.402;2022-12-31T05:18:36;100374.94;;;10.83;100.00
76321;BME280;65132;52.088;5.402;2022-12-31T05:21:03;100380.66;;;10.98;100.00
76321;BME280;65132;52.088;5.402;2022-12-31T05:23:30;100373.69;;;10.96;100.00
76321;BME280;65132;52.088;5.402;2022-12-31T05:25:56;100369.50;;;11.01;100.00
76321;BME280;65132;52.088;5.402;2022-12-31T05:28:23;100394.25;;;11.06;100.00
76321;BME280;65132;52.088;5.402;2022-12-31T05:30:50;100381.44;;;11.16;100.00
76321;BME280;65132;52.088;5.402;2022-12-31T05:33:17;100391.97;;;11.19;100.00
76321;BME280;65132;52.088;5.402;2022-12-31T05:35:44;100378.78;;;11.24;100.00
76321;BME280;65132;52.088;5.402;2022-12-31T05:38:11;100395.72;;;11.26;100.00
76321;BME280;65132;52.088;5.402;2022-12-31T05:40:37;100401.72;;;11.38;100.00
76321;BME280;65132;52.088;5.402;2022-12-31T05:43:03;100377.50;;;11.36;100.00
76321;BME280;65132;52.088;5.402;2022-12-31T05:45:30;100389.41;;;11.43;100.00
76321;BME280;65132;52.088;5.402;2022-12-31T05:47:57;100385.22;;;11.49;99.93
76321;BME280;65132;52.088;5.402;2022-12-31T05:50:23;100395.72;;;11.52;100.00
76321;BME280;65132;52.088;5.402;2022-12-31T05:52:50;100376.91;;;11.50;100.00
76321;BME280;65132;52.088;5.402;2022-12-31T05:55:16;100386.56;;;11.53;100.00
76321;BME280;65132;52.088;5.402;2022-12-31T05:57:43;100390.31;;;11.60;100.00
76321;BME280;65132;52.088;5.402;2022-12-31T06:00:10;100395.06;;;11.58;100.00
76321;BME280;65132;52.088;5.402;2022-12-31T06:02:37;100394.47;;;11.64;100.00
76321;BME280;65132;52.088;5.402;2022-12-31T06:05:04;100388.88;;;11.65;100.00
76321;BME280;65132;52.088;5.402;2022-12-31T06:07:30;100391.59;;;11.65;100.00
76321;BME280;65132;52.088;5.402;2022-12-31T06:09:57;100380.56;;;11.67;99.99
76321;BME280;65132;52.088;5.402;2022-12-31T06:12:23;100385.31;;;11.65;100.00
76321;BME280;65132;52.088;5.402;2022-12-31T06:14:50;100382.13;;;11.69;100.00
76321;BME280;65132;52.088;5.402;2022-12-31T06:17:17;100394.13;;;11.67;100.00
76321;BME280;65132;52.088;5.402;2022-12-31T06:19:43;100391.63;;;11.73;99.75
76321;BME280;65132;52.088;5.402;2022-12-31T06:22:10;100403.47;;;11.72;100.00
76321;BME280;65132;52.088;5.402;2022-12-31T06:24:36;100397.53;;;11.69;100.00
76321;BME280;65132;52.088;5.402;2022-12-31T06:27:02;100390.44;;;11.68;100.00
76321;BME280;65132;52.088;5.402;2022-12-31T06:29:29;100382.97;;;11.70;100.00
76321;BME280;65132;52.088;5.402;2022-12-31T06:31:56;100391.16;;;11.78;100.00
76321;BME280;65132;52.088;5.402;2022-12-31T06:34:23;100397.75;;;11.83;100.00
76321;BME280;65132;52.088;5.402;2022-12-31T06:36:49;100397.59;;;11.85;100.00
76321;BME280;65132;52.088;5.402;2022-12-31T06:39:16;100416.97;;;11.90;100.00
76321;BME280;65132;52.088;5.402;2022-12-31T06:41:42;100404.28;;;11.98;100.00
76321;BME280;65132;52.088;5.402;2022-12-31T06:44:09;100413.41;;;11.97;100.00
76321;BME280;65132;52.088;5.402;2022-12-31T06:46:35;100416.97;;;11.98;100.00
76321;BME280;65132;52.088;5.402;2022-12-31T06:49:02;100416.84;;;12.07;100.00
76321;BME280;65132;52.088;5.402;2022-12-31T06:51:28;100418.72;;;12.07;100.00
76321;BME280;65132;52.088;5.402;2022-12-31T06:53:54;100425.00;;;12.16;100.00
76321;BME280;65132;52.088;5.402;2022-12-31T06:56:24;100426.34;;;12.12;100.00
76321;BME280;65132;52.088;5.402;2022-12-31T06:58:59;100435.22;;;12.30;100.00
76321;BME280;65132;52.088;5.402;2022-12-31T07:01:56;100419.97;;;12.37;100.00
76321;BME280;65132;52.088;5.402;2022-12-31T07:10:00;100395.75;;;12.67;99.63
76321;BME280;65132;52.088;5.402;2022-12-31T07:18:15;100413.75;;;12.92;99.36
76321;BME280;65132;52.088;5.402;2022-12-31T07:20:45;100399.34;;;12.92;99.53
76321;BME280;65132;52.088;5.402;2022-12-31T07:23:12;100390.50;;;13.06;98.68
76321;BME280;65132;52.088;5.402;2022-12-31T07:25:46;100405.94;;;12.97;98.85
76321;BME280;65132;52.088;5.402;2022-12-31T07:29:07;100406.31;;;13.02;99.02
76321;BME280;65132;52.088;5.402;2022-12-31T07:31:41;100415.31;;;13.11;99.42
76321;BME280;65132;52.088;5.402;2022-12-31T07:37:02;100427.88;;;13.20;99.11
76321;BME280;65132;52.088;5.402;2022-12-31T07:42:29;100421.91;;;13.24;99.14
76321;BME280;65132;52.088;5.402;2022-12-31T07:47:40;100420.91;;;13.26;99.30
76321;BME280;65132;52.088;5.402;2022-12-31T07:50:13;100432.78;;;13.33;98.86
76321;BME280;65132;52.088;5.402;2022-12-31T07:52:40;100433.13;;;13.38;98.64
76321;BME280;65132;52.088;5.402;2022-12-31T07:55:07;100440.25;;;13.39;99.13
76321;BME280;65132;52.088;5.402;2022-12-31T07:57:39;100437.19;;;13.42;99.08
76321;BME280;65132;52.088;5.402;2022-12-31T08:00:12;100448.03;;;13.42;98.55
76321;BME280;65132;52.088;5.402;2022-12-31T08:11:07;100441.75;;;13.49;98.36
76321;BME280;65132;52.088;5.402;2022-12-31T08:13:36;100454.50;;;13.57;98.10
76321;BME280;65132;52.088;5.402;2022-12-31T08:16:09;100454.31;;;13.50;97.93
76321;BME280;65132;52.088;5.402;2022-12-31T08:18:36;100440.25;;;13.39;97.95
76321;BME280;65132;52.088;5.402;2022-12-31T08:24:15;100454.69;;;13.55;97.40
76321;BME280;65132;52.088;5.402;2022-12-31T08:37:37;100500.91;;;13.31;97.65
76321;BME280;65132;52.088;5.402;2022-12-31T08:43:36;100502.09;;;13.29;97.69
76321;BME280;65132;52.088;5.402;2022-12-31T08:46:16;100516.19;;;13.24;98.09
76321;BME280;65132;52.088;5.402;2022-12-31T08:48:44;100513.47;;;13.16;97.91
76321;BME280;65132;52.088;5.402;2022-12-31T08:51:20;100518.06;;;13.15;98.00
76321;BME280;65132;52.088;5.402;2022-12-31T08:53:48;100533.16;;;13.18;97.75
76321;BME280;65132;52.088;5.402;2022-12-31T08:56:34;100542.84;;;13.20;97.54
76321;BME280;65132;52.088;5.402;2022-12-31T09:01:49;100559.16;;;13.20;97.30
76321;BME280;65132;52.088;5.402;2022-12-31T09:07:09;100565.28;;;13.23;97.36
76321;BME280;65132;52.088;5.402;2022-12-31T09:12:36;100575.13;;;13.23;97.50
76321;BME280;65132;52.088;5.402;2022-12-31T09:15:14;100569.34;;;13.18;97.36
76321;BME280;65132;52.088;5.402;2022-12-31T09:17:45;100587.34;;;13.19;97.93
76321;BME280;65132;52.088;5.402;2022-12-31T09:22:43;100577.31;;;13.28;97.46
76321;BME280;65132;52.088;5.402;2022-12-31T09:25:14;100563.25;;;13.33;97.27
76321;BME280;65132;52.088;5.402;2022-12-31T09:33:36;100583.47;;;13.46;96.44
76321;BME280;65132;52.088;5.402;2022-12-31T09:36:07;100572.78;;;13.53;96.17
76321;BME280;65132;52.088;5.402;2022-12-31T09:52:24;100584.13;;;13.72;96.00
76321;BME280;65132;52.088;5.402;2022-12-31T10:00:19;100586.00;;;14.04;94.09
76321;BME280;65132;52.088;5.402;2022-12-31T10:30:20;100599.28;;;14.62;93.50
76321;BME280;65132;52.088;5.402;2022-12-31T10:32:58;100608.09;;;14.72;93.05
76321;BME280;65132;52.088;5.402;2022-12-31T10:35:41;100602.88;;;14.62;93.85
76321;BME280;65132;52.088;5.402;2022-12-31T10:43:42;100587.53;;;14.69;93.33
76321;BME280;65132;52.088;5.402;2022-12-31T10:46:48;100604.53;;;14.71;93.39
76321;BME280;65132;52.088;5.402;2022-12-31T10:52:49;100586.75;;;14.83;92.43
76321;BME280;65132;52.088;5.402;2022-12-31T10:55:43;100590.22;;;14.77;92.69
76321;BME280;65132;52.088;5.402;2022-12-31T11:01:30;100580.75;;;14.96;91.66
76321;BME280;65132;52.088;5.402;2022-12-31T11:07:28;100603.78;;;14.85;92.75
76321;BME280;65132;52.088;5.402;2022-12-31T11:10:06;100607.56;;;14.84;93.10
76321;BME280;65132;52.088;5.402;2022-12-31T11:12:46;100598.69;;;14.82;93.64
76321;BME280;65132;52.088;5.402;2022-12-31T11:18:10;100611.00;;;14.70;94.26
76321;BME280;65132;52.088;5.402;2022-12-31T11:26:57;100574.69;;;14.47;96.05
76321;BME280;65132;52.088;5.402;2022-12-31T11:48:27;100603.97;;;14.84;93.07
76321;BME280;65132;52.088;5.402;2022-12-31T11:56:24;100603.91;;;15.22;89.76
76321;BME280;65132;52.088;5.402;2022-12-31T11:58:54;100618.59;;;15.21;89.95
76321;BME280;65132;52.088;5.402;2022-12-31T12:04:12;100608.47;;;15.30;89.47
76321;BME280;65132;52.088;5.402;2022-12-31T12:06:39;100600.47;;;15.28;89.60
76321;BME280;65132;52.088;5.402;2022-12-31T12:09:09;100597.09;;;15.26;89.97
76321;BME280;65132;52.088;5.402;2022-12-31T12:11:39;100592.19;;;15.22;90.31
76321;BME280;65132;52.088;5.402;2022-12-31T12:14:32;100588.78;;;15.20;89.77
76321;BME280;65132;52.088;5.402;2022-12-31T12:17:00;100601.91;;;15.16;90.36
76321;BME280;65132;52.088;5.402;2022-12-31T12:19:32;100595.00;;;15.06;90.33
76321;BME280;65132;52.088;5.402;2022-12-31T12:22:12;100585.47;;;15.02;90.92
76321;BME280;65132;52.088;5.402;2022-12-31T12:24:39;100593.81;;;15.00;90.84
76321;BME280;65132;52.088;5.402;2022-12-31T12:27:19;100583.28;;;14.97;90.76
76321;BME280;65132;52.088;5.402;2022-12-31T12:29:46;100595.34;;;15.03;90.77
76321;BME280;65132;52.088;5.402;2022-12-31T12:32:18;100600.25;;;15.07;89.67
76321;BME280;65132;52.088;5.402;2022-12-31T12:34:46;100580.75;;;14.96;90.66
76321;BME280;65132;52.088;5.402;2022-12-31T12:37:35;100598.94;;;15.03;90.26
76321;BME280;65132;52.088;5.402;2022-12-31T12:40:05;100608.50;;;14.99;90.20
76321;BME280;65132;52.088;5.402;2022-12-31T12:42:33;100597.78;;;14.98;90.60
76321;BME280;65132;52.088;5.402;2022-12-31T12:45:21;100584.84;;;14.92;90.80
76321;BME280;65132;52.088;5.402;2022-12-31T12:47:52;100587.38;;;15.01;90.25
76321;BME280;65132;52.088;5.402;2022-12-31T12:50:22;100592.13;;;14.99;90.27
76321;BME280;65132;52.088;5.402;2022-12-31T13:01:29;100612.72;;;15.02;89.99
76321;BME280;65132;52.088;5.402;2022-12-31T13:15:37;100608.13;;;15.02;89.72
76321;BME280;65132;52.088;5.402;2022-12-31T13:21:02;100611.09;;;14.85;90.81
76321;BME280;65132;52.088;5.402;2022-12-31T13:26:33;100618.31;;;14.78;91.33
76321;BME280;65132;52.088;5.402;2022-12-31T13:29:02;100619.38;;;14.69;91.91
76321;BME280;65132;52.088;5.402;2022-12-31T13:31:33;100625.41;;;14.87;90.56
76321;BME280;65132;52.088;5.402;2022-12-31T13:34:06;100628.72;;;14.74;91.07
76321;BME280;65132;52.088;5.402;2022-12-31T13:36:39;100640.97;;;14.70;91.72
76321;BME280;65132;52.088;5.402;2022-12-31T13:39:14;100635.16;;;14.73;91.46
76321;BME280;65132;52.088;5.402;2022-12-31T13:41:54;100647.47;;;14.69;91.97
76321;BME280;65132;52.088;5.402;2022-12-31T13:44:30;100649.00;;;14.64;92.15
76321;BME280;65132;52.088;5.402;2022-12-31T13:47:10;100629.78;;;14.57;92.61
76321;BME280;65132;52.088;5.402;2022-12-31T13:49:45;100634.38;;;14.57;92.44
76321;BME280;65132;52.088;5.402;2022-12-31T13:55:10;100632.19;;;14.52;93.17
76321;BME280;65132;52.088;5.402;2022-12-31T13:57:44;100632.19;;;14.52;92.89
76321;BME280;65132;52.088;5.402;2022-12-31T14:00:18;100626.53;;;14.62;91.91
76321;BME280;65132;52.088;5.402;2022-12-31T14:03:05;100634.16;;;14.66;91.56
76321;BME280;65132;52.088;5.402;2022-12-31T14:05:40;100639.44;;;14.68;91.71
76321;BME280;65132;52.088;5.402;2022-12-31T14:08:09;100632.44;;;14.73;90.97
76321;BME280;65132;52.088;5.402;2022-12-31T14:10:48;100627.72;;;14.67;90.87
76321;BME280;65132;52.088;5.402;2022-12-31T14:16:17;100617.41;;;14.85;89.45
76321;BME280;65132;52.088;5.402;2022-12-31T14:19:12;100617.38;;;14.93;88.23
76321;BME280;65132;52.088;5.402;2022-12-31T14:21:48;100632.22;;;14.91;88.57
76321;BME280;65132;52.088;5.402;2022-12-31T14:26:57;100639.53;;;14.90;87.87
76321;BME280;65132;52.088;5.402;2022-12-31T14:29:34;100651.81;;;14.86;88.00
76321;BME280;65132;52.088;5.402;2022-12-31T14:40:37;100659.50;;;14.83;86.99
76321;BME280;65132;52.088;5.402;2022-12-31T14:45:51;100667.69;;;14.75;86.28
76321;BME280;65132;52.088;5.402;2022-12-31T14:50:54;100656.41;;;14.86;85.44
76321;BME280;65132;52.088;5.402;2022-12-31T14:53:26;100671.53;;;14.88;85.41
76321;BME280;65132;52.088;5.402;2022-12-31T14:56:05;100670.25;;;14.68;86.45
76321;BME280;65132;52.088;5.402;2022-12-31T14:58:38;100671.97;;;14.69;85.93
76321;BME280;65132;52.088;5.402;2022-12-31T15:01:18;100672.69;;;14.55;86.69
76321;BME280;65132;52.088;5.402;2022-12-31T15:03:44;100669.41;;;14.68;85.82
76321;BME280;65132;52.088;5.402;2022-12-31T15:09:18;100683.69;;;14.70;85.77
76321;BME280;65132;52.088;5.402;2022-12-31T15:17:39;100675.81;;;14.91;83.36
76321;BME280;65132;52.088;5.402;2022-12-31T15:20:14;100664.19;;;14.97;82.58
76321;BME280;65132;52.088;5.402;2022-12-31T15:22:48;100670.13;;;15.00;82.49
76321;BME280;65132;52.088;5.402;2022-12-31T15:25:45;100663.13;;;15.06;81.97
76321;BME280;65132;52.088;5.402;2022-12-31T15:28:31;100653.97;;;14.99;82.26
76321;BME280;65132;52.088;5.402;2022-12-31T15:31:18;100665.84;;;15.06;81.30
76321;BME280;65132;52.088;5.402;2022-12-31T15:34:02;100660.03;;;15.09;81.26
76321;BME280;65132;52.088;5.402;2022-12-31T15:36:33;100640.16;;;15.00;81.34
76321;BME280;65132;52.088;5.402;2022-12-31T15:39:05;100645.59;;;15.08;80.79
76321;BME280;65132;52.088;5.402;2022-12-31T15:41:43;100652.81;;;15.24;79.80
76321;BME280;65132;52.088;5.402;2022-12-31T15:44:51;100655.19;;;15.27;79.05
76321;BME280;65132;52.088;5.402;2022-12-31T15:47:29;100653.66;;;15.24;79.02
76321;BME280;65132;52.088;5.402;2022-12-31T15:50:00;100660.66;;;15.27;78.62
76321;BME280;65132;52.088;5.402;2022-12-31T15:52:53;100652.75;;;15.40;77.59
76321;BME280;65132;52.088;5.402;2022-12-31T15:57:48;100641.38;;;15.28;77.80
76321;BME280;65132;52.088;5.402;2022-12-31T16:00:19;100650.94;;;15.24;78.36
76321;BME280;65132;52.088;5.402;2022-12-31T16:02:46;100658.56;;;15.29;77.66
76321;BME280;65132;52.088;5.402;2022-12-31T16:05:24;100659.78;;;15.26;78.09
76321;BME280;65132;52.088;5.402;2022-12-31T16:07:56;100665.88;;;15.36;77.28
76321;BME280;65132;52.088;5.402;2022-12-31T16:10:29;100639.81;;;15.34;76.89
76321;BME280;65132;52.088;5.402;2022-12-31T16:12:56;100649.16;;;15.39;76.33
76321;BME280;65132;52.088;5.402;2022-12-31T16:15:27;100660.56;;;15.43;75.82
76321;BME280;65132;52.088;5.402;2022-12-31T16:18:04;100656.34;;;15.40;76.44
76321;BME280;65132;52.088;5.402;2022-12-31T16:20:32;100664.56;;;15.24;77.76
76321;BME280;65132;52.088;5.402;2022-12-31T16:23:00;100657.31;;;15.47;75.42
76321;BME280;65132;52.088;5.402;2022-12-31T16:25:30;100643.53;;;15.41;75.66
76321;BME280;65132;52.088;5.402;2022-12-31T16:28:00;100642.84;;;15.39;75.69
76321;BME280;65132;52.088;5.402;2022-12-31T16:30:29;100631.44;;;15.43;75.30
76321;BME280;65132;52.088;5.402;2022-12-31T16:33:00;100622.38;;;15.43;75.48
76321;BME280;65132;52.088;5.402;2022-12-31T16:35:35;100617.13;;;15.41;75.16
76321;BME280;65132;52.088;5.402;2022-12-31T16:38:16;100625.91;;;15.51;73.77
76321;BME280;65132;52.088;5.402;2022-12-31T16:46:13;100631.94;;;15.39;74.50
76321;BME280;65132;52.088;5.402;2022-12-31T16:48:45;100629.75;;;15.42;74.39
76321;BME280;65132;52.088;5.402;2022-12-31T16:51:17;100639.97;;;15.32;74.79
76321;BME280;65132;52.088;5.402;2022-12-31T16:53:47;100639.44;;;15.37;73.89
76321;BME280;65132;52.088;5.402;2022-12-31T16:56:22;100638.28;;;15.31;74.67
76321;BME280;65132;52.088;5.402;2022-12-31T16:59:01;100638.47;;;15.30;74.46
76321;BME280;65132;52.088;5.402;2022-12-31T17:01:31;100636.06;;;15.35;73.78
76321;BME280;65132;52.088;5.402;2022-12-31T17:04:02;100622.41;;;15.35;73.63
76321;BME280;65132;52.088;5.402;2022-12-31T17:06:29;100611.69;;;15.33;73.42